Time;durP1;ratioP1;P1;durP2;ratioP2;P2;SDS_P1;SDS_P2;PMS_P1;PMS_P2;Temp;Humidity;BMP_temperature;BMP_pressure;BME280_temperature;BME280_humidity;BME280_pressure;Samples;Min_cycle;Max_cycle;Signal;HPM_P1;HPM_P2
2022/08/17 00:00:08;;;;;;;9.55;8.63;;;20.10;99.90;;;;;;5119639;27;20534;-67
2022/08/17 00:03:08;;;;;;;10.35;8.55;;;20.10;99.90;;;;;;5091990;27;20058;-67
2022/08/17 00:05:58;;;;;;;11.07;9.35;;;20.00;99.90;;;;;;5098867;28;20082;-67
2022/08/17 00:08:34;;;;;;;9.60;8.80;;;20.00;99.90;;;;;;5121044;27;20110;-67
2022/08/17 00:11:06;;;;;;;9.82;8.85;;;19.90;99.90;;;;;;5112134;27;20465;-67
2022/08/17 00:13:37;;;;;;;9.50;8.57;;;19.90;99.90;;;;;;5117464;27;20048;-67
2022/08/17 00:16:17;;;;;;;9.98;8.98;;;19.90;99.90;;;;;;5117085;27;20035;-67
2022/08/17 00:18:46;;;;;;;10.35;9.45;;;19.80;99.90;;;;;;5116566;27;20075;-67
2022/08/17 00:21:35;;;;;;;10.23;8.50;;;19.80;99.90;;;;;;5123306;27;20508;-67
2022/08/17 00:24:23;;;;;;;9.38;8.57;;;19.80;99.90;;;;;;5105851;27;20066;-66
2022/08/17 00:26:51;;;;;;;11.48;9.07;;;19.70;99.90;;;;;;5117570;27;20111;-67
2022/08/17 00:29:18;;;;;;;10.25;9.25;;;19.70;99.90;;;;;;5117304;27;20048;-67
2022/08/17 00:31:47;;;;;;;10.90;9.77;;;19.70;99.90;;;;;;5128988;27;20054;-67
2022/08/17 00:34:15;;;;;;;9.80;8.80;;;19.60;99.90;;;;;;5110380;28;20052;-67
2022/08/17 00:36:42;;;;;;;9.32;8.43;;;19.60;99.90;;;;;;5110611;28;20056;-67
2022/08/17 00:39:10;;;;;;;10.35;9.38;;;19.60;99.90;;;;;;5111583;27;20147;-67
2022/08/17 00:41:37;;;;;;;10.10;9.20;;;19.50;99.90;;;;;;5110560;28;20120;-66
2022/08/17 00:44:10;;;;;;;10.07;9.17;;;19.50;99.90;;;;;;5110053;28;20050;-66
2022/08/17 00:46:41;;;;;;;10.35;9.35;;;19.50;99.90;;;;;;5110105;28;20316;-67
2022/08/17 00:49:11;;;;;;;11.17;9.47;;;19.40;99.90;;;;;;5115031;27;20070;-66
2022/08/17 00:51:38;;;;;;;10.25;9.15;;;19.50;99.90;;;;;;5118584;27;20493;-66
2022/08/17 00:54:11;;;;;;;10.00;8.98;;;19.50;99.90;;;;;;5120399;27;20121;-67
2022/08/17 00:56:44;;;;;;;11.57;9.55;;;19.40;99.90;;;;;;5111430;27;20043;-66
2022/08/17 00:59:18;;;;;;;10.68;9.68;;;19.40;99.90;;;;;;5120493;27;20047;-66
2022/08/17 01:01:48;;;;;;;10.68;9.68;;;19.30;99.90;;;;;;5115029;27;20577;-66
2022/08/17 01:04:17;;;;;;;10.88;9.70;;;19.30;99.90;;;;;;5110641;27;20044;-66
2022/08/17 01:06:48;;;;;;;10.77;9.85;;;19.30;99.90;;;;;;5114321;27;20438;-66
2022/08/17 01:09:17;;;;;;;10.40;9.40;;;19.30;99.90;;;;;;5119526;27;20446;-66
2022/08/17 01:11:50;;;;;;;10.60;9.55;;;19.30;99.90;;;;;;5118688;27;20051;-66
2022/08/17 01:14:23;;;;;;;10.85;9.73;;;19.20;99.90;;;;;;5118574;27;20036;-66
2022/08/17 01:16:53;;;;;;;12.27;9.82;;;19.20;99.90;;;;;;5118198;27;20042;-66
2022/08/17 01:19:24;;;;;;;10.63;9.43;;;19.20;99.90;;;;;;5113362;27;20055;-66
2022/08/17 01:22:07;;;;;;;11.83;9.37;;;19.10;99.90;;;;;;5120762;27;20086;-66
2022/08/17 01:24:36;;;;;;;11.10;10.10;;;19.10;99.90;;;;;;5106659;27;20060;-67
2022/08/17 01:27:05;;;;;;;11.07;9.85;;;19.10;99.90;;;;;;5116289;27;20514;-66
2022/08/17 01:29:39;;;;;;;9.93;9.02;;;19.10;99.90;;;;;;5116240;27;20574;-67
2022/08/17 01:32:07;;;;;;;10.27;9.27;;;19.00;99.90;;;;;;5123603;27;20043;-66
2022/08/17 01:34:35;;;;;;;11.18;9.57;;;19.00;99.90;;;;;;5109422;28;20458;-66
2022/08/17 01:37:12;;;;;;;11.65;9.90;;;19.00;99.90;;;;;;5109136;28;20054;-68
2022/08/17 01:39:50;;;;;;;10.68;9.57;;;19.00;99.90;;;;;;5109943;27;20074;-66
2022/08/17 01:42:25;;;;;;;11.02;9.90;;;19.00;99.90;;;;;;5109689;28;20062;-66
2022/08/17 01:44:56;;;;;;;10.57;9.27;;;19.00;99.90;;;;;;5121326;27;20468;-66
2022/08/17 01:47:24;;;;;;;10.48;9.38;;;19.00;99.90;;;;;;5110574;27;20047;-66
2022/08/17 01:49:51;;;;;;;11.75;9.57;;;18.90;99.90;;;;;;5111773;27;20039;-66
2022/08/17 01:52:20;;;;;;;12.18;9.10;;;18.90;99.90;;;;;;5114105;27;20577;-66
2022/08/17 01:54:49;;;;;;;10.82;9.45;;;18.90;99.90;;;;;;5116010;27;20138;-66
2022/08/17 01:57:17;;;;;;;10.73;9.07;;;18.90;99.90;;;;;;5113398;27;20130;-66
2022/08/17 01:59:44;;;;;;;10.68;9.52;;;18.90;99.90;;;;;;5120337;27;20054;-66
2022/08/17 02:02:12;;;;;;;10.30;9.30;;;18.90;99.90;;;;;;5112144;27;20051;-67
2022/08/17 02:05:00;;;;;;;11.95;9.10;;;18.90;99.90;;;;;;5104337;27;20055;-67
2022/08/17 02:07:27;;;;;;;10.05;9.05;;;18.80;99.90;;;;;;5116618;27;20048;-67
2022/08/17 02:09:55;;;;;;;11.15;9.23;;;18.80;99.90;;;;;;5117270;27;20039;-67
2022/08/17 02:12:23;;;;;;;9.88;8.65;;;18.80;99.90;;;;;;5097750;27;20059;-66
2022/08/17 02:15:06;;;;;;;11.55;10.15;;;18.80;99.90;;;;;;5115647;27;20077;-66
2022/08/17 02:17:34;;;;;;;10.40;9.25;;;18.80;99.90;;;;;;5097883;27;20574;-67
2022/08/17 02:20:03;;;;;;;10.48;9.38;;;18.70;99.90;;;;;;5120593;27;20529;-67
2022/08/17 02:22:31;;;;;;;12.07;9.80;;;18.70;99.90;;;;;;5101307;27;20055;-67
2022/08/17 02:24:59;;;;;;;10.57;9.55;;;18.70;99.90;;;;;;5121526;27;20054;-67
2022/08/17 02:27:29;;;;;;;9.65;8.75;;;18.70;99.90;;;;;;5098725;27;20048;-67
2022/08/17 02:29:56;;;;;;;9.98;8.82;;;18.70;99.90;;;;;;5113003;27;20111;-67
2022/08/17 02:32:25;;;;;;;11.30;9.05;;;18.70;99.90;;;;;;5098688;28;20036;-67
2022/08/17 02:34:56;;;;;;;9.63;8.63;;;18.60;99.90;;;;;;5102231;28;20074;-66
2022/08/17 02:37:24;;;;;;;10.48;9.48;;;18.70;99.90;;;;;;5110174;27;20504;-66
2022/08/17 02:39:52;;;;;;;10.00;9.05;;;18.70;99.90;;;;;;5107697;28;20035;-67
2022/08/17 02:42:26;;;;;;;9.38;8.48;;;18.60;99.90;;;;;;5110365;27;20509;-67
2022/08/17 02:44:54;;;;;;;9.88;8.88;;;18.60;99.90;;;;;;5112570;27;20054;-67
2022/08/17 02:47:21;;;;;;;9.82;8.80;;;18.50;99.90;;;;;;5120360;27;20035;-67
2022/08/17 02:49:48;;;;;;;11.00;9.40;;;18.60;99.90;;;;;;5121996;27;20550;-67
2022/08/17 02:52:22;;;;;;;10.00;8.85;;;18.50;99.90;;;;;;5120999;28;20043;-67
2022/08/17 02:55:23;;;;;;;10.32;9.43;;;18.50;99.90;;;;;;5123988;28;20043;-67
2022/08/17 02:57:51;;;;;;;10.15;9.15;;;18.50;99.90;;;;;;5098601;27;20086;-67
2022/08/17 03:00:32;;;;;;;10.63;8.80;;;18.50;99.90;;;;;;5128442;28;20099;-66
2022/08/17 03:03:02;;;;;;;9.90;8.90;;;18.50;99.90;;;;;;5120191;28;20043;-66
2022/08/17 03:05:31;;;;;;;9.50;8.57;;;18.50;99.90;;;;;;5100851;28;20131;-66
2022/08/17 03:07:59;;;;;;;10.35;9.35;;;18.50;99.90;;;;;;5104705;28;20042;-66
2022/08/17 03:10:28;;;;;;;10.27;8.88;;;18.50;99.90;;;;;;5114162;28;20421;-66
2022/08/17 03:12:56;;;;;;;11.75;8.75;;;18.40;99.90;;;;;;5122562;28;20035;-67
2022/08/17 03:15:27;;;;;;;10.65;9.70;;;18.40;99.90;;;;;;5123665;27;20569;-66
2022/08/17 03:17:55;;;;;;;10.13;9.20;;;18.40;99.90;;;;;;5110853;28;20483;-66
2022/08/17 03:20:24;;;;;;;11.02;9.05;;;18.50;99.90;;;;;;5101775;28;20040;-66
2022/08/17 03:22:55;;;;;;;10.10;9.07;;;18.40;99.90;;;;;;5114261;27;20161;-67
2022/08/17 03:25:33;;;;;;;10.75;8.82;;;18.40;99.90;;;;;;5111508;27;20146;-66
2022/08/17 03:28:00;;;;;;;10.52;9.07;;;18.40;99.90;;;;;;5108513;27;20132;-66
2022/08/17 03:30:28;;;;;;;10.15;9.05;;;18.40;99.90;;;;;;5121202;27;20079;-66
2022/08/17 03:32:58;;;;;;;18.02;9.57;;;18.30;99.90;;;;;;5104502;27;20224;-66
2022/08/17 03:35:30;;;;;;;14.68;9.50;;;18.30;99.90;;;;;;5118823;27;20337;-66
2022/08/17 03:37:59;;;;;;;9.55;8.55;;;18.30;99.90;;;;;;5113787;27;20088;-66
2022/08/17 03:40:30;;;;;;;11.45;9.20;;;18.20;99.90;;;;;;5111300;27;20047;-67
2022/08/17 03:43:19;;;;;;;9.88;8.98;;;18.20;99.90;;;;;;5112148;27;20525;-66
2022/08/17 03:57:12;;;;;;;9.70;8.73;;;18.10;99.90;;;;;;5114445;27;20047;-66
2022/08/17 03:59:39;;;;;;;11.43;9.88;;;18.10;99.90;;;;;;5116153;27;20148;-66
2022/08/17 04:02:11;;;;;;;10.57;9.48;;;18.10;99.90;;;;;;5104266;28;20055;-66
2022/08/17 04:04:39;;;;;;;;;;;18.10;99.90;;;;;;5100666;28;20086;-67
2022/08/17 04:07:07;;;;;;;10.38;9.38;;;18.10;99.90;;;;;;5112601;27;19924;-66
2022/08/17 04:09:35;;;;;;;10.82;9.15;;;18.10;99.90;;;;;;5122171;27;20063;-66
2022/08/17 04:12:03;;;;;;;10.18;9.18;;;18.20;99.90;;;;;;5101993;27;20465;-66
2022/08/17 04:14:35;;;;;;;10.70;9.68;;;18.20;99.90;;;;;;5111520;27;20560;-66
2022/08/17 04:17:25;;;;;;;9.90;9.00;;;18.20;99.90;;;;;;5110884;27;20579;-66
2022/08/17 04:19:53;;;;;;;10.88;9.85;;;18.20;99.90;;;;;;5124674;27;20568;-66
2022/08/17 04:22:22;;;;;;;11.13;9.95;;;18.20;99.90;;;;;;5122866;27;20084;-66
2022/08/17 04:25:20;;;;;;;10.85;9.85;;;18.20;99.90;;;;;;5112951;27;20128;-66
2022/08/17 04:27:48;;;;;;;12.40;9.95;;;18.20;99.90;;;;;;5105976;27;20094;-66
2022/08/17 04:30:15;;;;;;;11.20;9.98;;;18.20;99.90;;;;;;5119035;27;20043;-67
2022/08/17 04:32:53;;;;;;;12.98;9.05;;;18.20;99.90;;;;;;5102958;28;20089;-66
2022/08/17 04:35:46;;;;;;;10.82;9.60;;;18.30;99.90;;;;;;5116658;27;20040;-66
2022/08/17 04:38:19;;;;;;;11.60;9.85;;;18.30;99.90;;;;;;5103639;27;20105;-66
2022/08/17 04:43:35;;;;;;;10.98;9.98;;;18.40;99.90;;;;;;5112281;27;20040;-67
2022/08/17 04:46:08;;;;;;;10.95;9.88;;;18.50;99.90;;;;;;5099018;27;20040;-67
2022/08/17 04:48:39;;;;;;;10.23;9.07;;;18.50;99.90;;;;;;5111889;27;20122;-67
2022/08/17 04:51:10;;;;;;;10.93;9.75;;;18.60;99.90;;;;;;5105298;27;20047;-68
2022/08/17 04:53:39;;;;;;;11.02;10.02;;;18.70;99.90;;;;;;5108530;27;20047;-69
2022/08/17 04:56:07;;;;;;;11.73;9.85;;;18.80;99.90;;;;;;5109377;27;20036;-67
2022/08/17 04:58:44;;;;;;;11.57;9.40;;;18.90;99.90;;;;;;5103538;27;20115;-67
2022/08/17 05:01:12;;;;;;;11.13;10.02;;;19.00;99.90;;;;;;5105372;27;20039;-67
2022/08/17 05:03:40;;;;;;;10.57;9.57;;;19.00;99.90;;;;;;5119353;27;20044;-67
2022/08/17 05:06:08;;;;;;;12.15;10.75;;;18.90;99.90;;;;;;5096629;27;20152;-67
2022/08/17 05:08:37;;;;;;;11.68;10.50;;;18.90;99.90;;;;;;5112582;27;20043;-67
2022/08/17 05:11:05;;;;;;;12.52;9.55;;;18.90;99.90;;;;;;5115122;27;20450;-67
2022/08/17 05:13:32;;;;;;;11.25;10.25;;;18.90;99.90;;;;;;5104050;27;20490;-66
2022/08/17 05:16:02;;;;;;;10.40;9.50;;;19.00;99.90;;;;;;5110540;27;20102;-66
2022/08/17 05:18:30;;;;;;;11.10;9.43;;;19.00;99.90;;;;;;5112613;27;20073;-66
2022/08/17 05:20:57;;;;;;;10.25;9.27;;;19.10;99.90;;;;;;5113190;27;20138;-66
2022/08/17 05:23:27;;;;;;;11.93;10.48;;;19.30;99.90;;;;;;5113946;27;20047;-66
2022/08/17 05:26:13;;;;;;;10.70;9.60;;;19.30;99.90;;;;;;5101919;27;20471;-66
2022/08/17 05:28:54;;;;;;;11.18;10.07;;;19.40;99.90;;;;;;5099058;27;20498;-66
2022/08/17 05:31:24;;;;;;;12.40;11.10;;;19.50;99.90;;;;;;5108328;27;20150;-66
2022/08/17 05:33:52;;;;;;;12.93;11.63;;;19.60;99.90;;;;;;5114097;27;20118;-67
2022/08/17 05:36:19;;;;;;;15.05;11.43;;;19.60;99.90;;;;;;5124185;27;20512;-66
2022/08/17 05:39:07;;;;;;;14.85;11.32;;;19.70;99.90;;;;;;5109058;28;20551;-67
2022/08/17 05:41:41;;;;;;;13.68;11.25;;;19.80;99.90;;;;;;5109437;28;20047;-68
2022/08/17 05:44:09;;;;;;;15.90;11.65;;;19.90;99.90;;;;;;5122019;27;20048;-66
2022/08/17 05:46:42;;;;;;;18.25;12.55;;;19.80;99.90;;;;;;5106744;28;20046;-66
2022/08/17 05:49:12;;;;;;;13.43;11.65;;;19.90;99.90;;;;;;5108462;28;20506;-66
2022/08/17 05:51:58;;;;;;;12.65;10.65;;;20.00;99.90;;;;;;5109053;28;20122;-67
2022/08/17 05:54:34;;;;;;;12.52;11.25;;;20.20;99.90;;;;;;5115429;27;20126;-66
2022/08/17 05:57:27;;;;;;;12.15;10.80;;;20.40;99.90;;;;;;5112423;27;20075;-66
2022/08/17 06:00:00;;;;;;;11.48;10.27;;;20.60;99.90;;;;;;5105562;27;20077;-66
2022/08/17 06:03:06;;;;;;;13.77;9.98;;;20.70;99.90;;;;;;5108149;28;20061;-66
2022/08/17 06:05:42;;;;;;;11.52;10.05;;;20.90;99.90;;;;;;5106189;28;20443;-66
2022/08/17 06:08:25;;;;;;;12.15;10.70;;;21.00;99.90;;;;;;5094284;28;20047;-66
2022/08/17 06:11:01;;;;;;;11.35;10.00;;;21.10;99.90;;;;;;5106708;27;20222;-66
2022/08/17 06:14:13;;;;;;;13.10;10.15;;;21.20;99.90;;;;;;5094350;27;20164;-66
2022/08/17 06:16:47;;;;;;;12.02;10.93;;;21.30;99.90;;;;;;5062245;28;20060;-66
2022/08/17 06:19:35;;;;;;;11.35;10.35;;;21.30;99.90;;;;;;5064769;28;20147;-67
2022/08/17 06:22:04;;;;;;;11.57;10.48;;;21.30;99.90;;;;;;5061510;28;20531;-67
2022/08/17 06:24:40;;;;;;;14.88;12.02;;;21.40;99.90;;;;;;5064158;28;20052;-67
2022/08/17 06:27:24;;;;;;;13.00;10.63;;;21.50;99.90;;;;;;5057895;28;20604;-67
2022/08/17 06:30:14;;;;;;;11.55;10.10;;;21.60;99.90;;;;;;5032152;28;20079;-67
2022/08/17 06:32:44;;;;;;;11.63;9.90;;;21.60;99.90;;;;;;5054391;28;20045;-67
2022/08/17 06:35:17;;;;;;;11.50;10.32;;;21.70;99.90;;;;;;5065003;28;20132;-66
2022/08/17 06:38:00;;;;;;;11.18;9.93;;;21.80;99.90;;;;;;5064935;28;20134;-66
2022/08/17 06:40:44;;;;;;;11.13;10.13;;;21.80;99.90;;;;;;5064212;28;20156;-66
2022/08/17 06:43:32;;;;;;;10.63;9.55;;;21.90;99.90;;;;;;5065062;28;20056;-66
2022/08/17 06:46:11;;;;;;;11.32;10.30;;;22.00;99.90;;;;;;5065108;28;20150;-66
2022/08/17 06:48:42;;;;;;;11.27;9.95;;;22.10;99.90;;;;;;5061816;28;20063;-66
2022/08/17 06:51:15;;;;;;;10.80;9.80;;;22.10;99.90;;;;;;5090283;28;20047;-66
2022/08/17 06:53:44;;;;;;;11.80;10.60;;;22.20;99.90;;;;;;5105450;28;20536;-66
2022/08/17 06:56:18;;;;;;;12.07;9.75;;;22.20;99.90;;;;;;5113428;28;20466;-66
2022/08/17 06:58:47;;;;;;;10.57;9.52;;;22.30;99.90;;;;;;5113247;27;20046;-66
2022/08/17 07:01:17;;;;;;;10.32;9.13;;;22.40;99.90;;;;;;5115245;27;20416;-66
2022/08/17 07:03:53;;;;;;;11.32;8.75;;;22.50;99.90;;;;;;5108150;28;20058;-66
2022/08/17 07:06:25;;;;;;;10.32;9.32;;;22.60;99.90;;;;;;5100938;27;20043;-66
2022/08/17 07:08:56;;;;;;;;;;;22.70;99.90;;;;;;5102214;27;20048;-66
2022/08/17 07:11:32;;;;;;;10.30;8.60;;;22.80;99.90;;;;;;5115203;27;20018;-66
2022/08/17 07:14:35;;;;;;;13.18;8.85;;;22.90;99.90;;;;;;5115182;27;20202;-66
2022/08/17 07:17:14;;;;;;;9.02;8.23;;;23.00;99.90;;;;;;5106473;27;20104;-66
2022/08/17 07:19:44;;;;;;;9.38;8.45;;;23.20;99.90;;;;;;5101112;27;20042;-66
2022/08/17 07:22:40;;;;;;;9.45;8.07;;;23.20;99.90;;;;;;5096715;27;20604;-66
2022/08/17 07:25:27;;;;;;;10.18;8.57;;;23.40;99.90;;;;;;5108415;27;20298;-66
2022/08/17 07:27:58;;;;;;;10.30;8.70;;;23.40;99.90;;;;;;5113330;27;20078;-66
2022/08/17 07:30:48;;;;;;;9.82;7.78;;;23.50;99.90;;;;;;5108816;27;20127;-66
2022/08/17 07:33:24;;;;;;;9.00;8.30;;;23.60;99.90;;;;;;5117409;27;20047;-68
2022/08/17 07:35:52;;;;;;;9.13;8.32;;;23.70;99.90;;;;;;5097807;27;20084;-66
2022/08/17 07:38:22;;;;;;;9.10;8.20;;;23.80;99.90;;;;;;5105077;27;20577;-66
2022/08/17 07:43:29;;;;;;;8.65;7.95;;;24.10;99.90;;;;;;5117021;27;20050;-67
2022/08/17 07:49:02;;;;;;;8.23;7.55;;;24.40;99.90;;;;;;5111079;27;20046;-66
2022/08/17 07:51:39;;;;;;;9.70;8.80;;;24.50;99.90;;;;;;5103423;27;20046;-66
2022/08/17 07:54:21;;;;;;;9.15;8.25;;;24.60;99.90;;;;;;5095763;27;20153;-66
2022/08/17 07:57:02;;;;;;;10.00;8.25;;;24.70;99.90;;;;;;5119953;27;20426;-68
2022/08/17 07:59:32;;;;;;;10.02;8.70;;;24.80;99.90;;;;;;5118116;27;20065;-69
2022/08/17 08:02:15;;;;;;;9.20;8.25;;;24.90;99.90;;;;;;5126401;27;20104;-68
2022/08/17 08:04:57;;;;;;;11.32;8.30;;;25.00;99.90;;;;;;5100991;27;20431;-69
2022/08/17 08:07:59;;;;;;;9.50;8.20;;;25.10;99.90;;;;;;5110055;27;20067;-68
2022/08/17 08:10:35;;;;;;;11.63;8.10;;;25.20;99.90;;;;;;5093128;27;20068;-68
2022/08/17 08:13:20;;;;;;;9.30;8.40;;;25.30;99.90;;;;;;5118886;27;20047;-68
2022/08/17 08:15:49;;;;;;;9.32;8.43;;;25.30;99.90;;;;;;5116413;27;20054;-68
2022/08/17 08:18:34;;;;;;;14.07;8.32;;;25.50;99.90;;;;;;5111485;27;20410;-68
2022/08/17 08:21:27;;;;;;;10.23;9.07;;;25.60;99.90;;;;;;5110883;27;20118;-68
2022/08/17 08:24:20;;;;;;;9.95;8.43;;;25.70;99.90;;;;;;5118978;27;20043;-67
2022/08/17 08:27:09;;;;;;;8.98;8.07;;;25.80;99.90;;;;;;5112778;27;20401;-66
2022/08/17 08:29:55;;;;;;;9.40;8.10;;;26.00;99.90;;;;;;5104725;27;20489;-67
2022/08/17 08:32:43;;;;;;;12.02;9.35;;;26.30;99.90;;;;;;5092116;28;20533;-67
2022/08/17 08:35:33;;;;;;;9.25;8.07;;;26.50;99.90;;;;;;5107553;27;20127;-67
2022/08/17 08:38:22;;;;;;;8.60;7.78;;;26.70;99.90;;;;;;5108517;27;20504;-67
2022/08/17 08:41:07;;;;;;;8.85;8.00;;;26.90;99.90;;;;;;5104466;27;20175;-67
2022/08/17 08:43:59;;;;;;;11.02;7.53;;;27.10;99.90;;;;;;5095778;27;20090;-68
2022/08/17 08:46:42;;;;;;;8.82;8.02;;;27.20;99.90;;;;;;5105167;27;20051;-67
2022/08/17 08:49:44;;;;;;;10.98;8.15;;;27.40;99.90;;;;;;5115635;27;20043;-67
2022/08/17 08:53:02;;;;;;;8.57;7.68;;;27.50;99.90;;;;;;5124967;27;20042;-67
2022/08/17 08:55:53;;;;;;;11.75;7.90;;;27.60;99.90;;;;;;5100305;27;20063;-67
2022/08/17 08:58:35;;;;;;;8.00;7.25;;;27.80;99.90;;;;;;5102262;28;20040;-67
2022/08/17 09:01:36;;;;;;;12.30;7.85;;;27.90;99.90;;;;;;5112252;27;20222;-68
2022/08/17 09:04:22;;;;;;;12.15;7.65;;;28.10;99.90;;;;;;5101808;28;20059;-68
2022/08/17 09:07:06;;;;;;;9.18;7.50;;;28.30;99.90;;;;;;5110065;27;20510;-68
2022/08/17 09:09:44;;;;;;;11.75;7.97;;;28.50;99.90;;;;;;5120289;27;20512;-69
2022/08/17 09:12:32;;;;;;;9.68;7.40;;;28.70;99.90;;;;;;5101073;27;20474;-67
2022/08/17 09:15:11;;;;;;;8.40;7.60;;;28.80;99.90;;;;;;5103595;27;20054;-66
2022/08/17 09:18:06;;;;;;;12.88;7.80;;;29.00;99.90;;;;;;5110260;27;20109;-66
2022/08/17 09:21:03;;;;;;;8.85;7.50;;;29.00;99.90;;;;;;5105185;27;20517;-66
2022/08/17 09:23:44;;;;;;;8.32;7.53;;;29.10;99.90;;;;;;5085854;28;20154;-67
2022/08/17 09:26:21;;;;;;;8.10;7.22;;;29.20;99.90;;;;;;5103988;27;20039;-67
2022/08/17 09:28:59;;;;;;;10.02;6.93;;;29.40;99.90;;;;;;5086900;28;20424;-68
2022/08/17 09:31:35;;;;;;;8.48;7.53;;;29.50;99.90;;;;;;5102218;27;20456;-65
2022/08/17 09:34:21;;;;;;;10.15;7.93;;;29.50;99.90;;;;;;5096680;27;20470;-65
2022/08/17 09:37:17;;;;;;;8.10;7.40;;;29.60;99.90;;;;;;5097033;27;20036;-66
2022/08/17 09:39:55;;;;;;;8.45;7.18;;;29.80;99.90;;;;;;5116154;27;20490;-66
2022/08/17 09:42:34;;;;;;;7.93;7.22;;;29.90;99.90;;;;;;5109355;27;20066;-66
2022/08/17 09:45:22;;;;;;;11.20;6.93;;;30.10;99.50;;;;;;5110217;27;20040;-66
2022/08/17 09:48:21;;;;;;;10.88;7.20;;;30.20;98.80;;;;;;5099330;27;20032;-67
2022/08/17 09:50:52;;;;;;;9.63;7.30;;;30.40;97.30;;;;;;5090467;27;20040;-66
2022/08/17 09:53:36;;;;;;;7.60;6.90;;;30.60;96.60;;;;;;5088242;27;20036;-68
2022/08/17 09:56:22;;;;;;;7.72;7.00;;;30.70;95.60;;;;;;5090426;27;20406;-66
2022/08/17 09:59:31;;;;;;;7.53;6.82;;;31.00;94.60;;;;;;5088855;27;20064;-66
2022/08/17 10:02:38;;;;;;;8.13;7.07;;;31.20;93.80;;;;;;5100555;27;20070;-67
2022/08/17 10:05:36;;;;;;;9.63;7.35;;;31.50;92.80;;;;;;5091381;28;20051;-67
2022/08/17 10:08:08;;;;;;;7.85;7.15;;;31.50;92.60;;;;;;5113596;27;20077;-67
2022/08/17 10:11:04;;;;;;;9.70;7.50;;;31.70;92.10;;;;;;5111214;27;20092;-66
2022/08/17 10:13:55;;;;;;;8.30;7.60;;;31.90;90.50;;;;;;5099453;27;20040;-65
2022/08/17 10:16:37;;;;;;;8.23;7.43;;;32.00;88.40;;;;;;5104701;27;20035;-65
2022/08/17 10:19:17;;;;;;;8.60;7.75;;;32.20;86.80;;;;;;5112840;27;20108;-65
2022/08/17 10:27:56;;;;;;;8.20;7.50;;;32.40;84.80;;;;;;5121841;27;20354;-64
2022/08/17 10:30:27;;;;;;;9.00;7.28;;;32.80;83.40;;;;;;5116603;27;20062;-66
2022/08/17 10:33:14;;;;;;;8.73;7.90;;;32.80;86.10;;;;;;5104592;27;20112;-66
2022/08/17 10:36:07;;;;;;;8.55;7.80;;;33.00;84.10;;;;;;5125449;27;20075;-66
2022/08/17 10:38:50;;;;;;;8.18;7.40;;;33.30;82.70;;;;;;5095779;28;20381;-66
2022/08/17 10:41:20;;;;;;;8.55;7.15;;;33.30;80.20;;;;;;5108515;27;20432;-65
2022/08/17 10:43:51;;;;;;;8.57;7.78;;;33.40;79.80;;;;;;5096975;28;20668;-64
2022/08/17 10:46:49;;;;;;;8.88;8.07;;;33.70;78.80;;;;;;5090631;28;20044;-63
2022/08/17 10:49:16;;;;;;;8.57;7.78;;;34.10;77.50;;;;;;5111746;27;20134;-64
2022/08/17 10:51:52;;;;;;;8.18;7.47;;;34.50;76.60;;;;;;5107958;27;20396;-65
2022/08/17 10:54:39;;;;;;;7.65;7.03;;;34.40;75.10;;;;;;5102683;28;20036;-64
2022/08/17 10:57:33;;;;;;;9.95;7.25;;;34.80;74.10;;;;;;5109565;28;20048;-65
2022/08/17 11:00:18;;;;;;;7.57;6.90;;;35.20;72.50;;;;;;5087923;28;20065;-64
2022/08/17 11:02:57;;;;;;;8.30;7.35;;;35.40;71.90;;;;;;5118002;28;20407;-64
2022/08/17 11:06:12;;;;;;;7.68;6.97;;;35.10;71.60;;;;;;5099570;28;20509;-64
2022/08/17 11:08:48;;;;;;;9.50;7.22;;;34.70;71.60;;;;;;5103747;27;20385;-64
2022/08/17 11:11:37;;;;;;;7.72;7.00;;;34.20;70.80;;;;;;5114200;28;20036;-63
2022/08/17 11:14:22;;;;;;;7.38;6.80;;;34.30;70.00;;;;;;5101103;28;20119;-64
2022/08/17 11:17:14;;;;;;;8.13;7.40;;;34.10;69.60;;;;;;5107548;28;20477;-64
2022/08/17 11:20:04;;;;;;;;;;;34.00;70.10;;;;;;5111689;28;20499;-64
2022/08/17 11:22:32;;;;;;;8.38;7.07;;;34.50;69.20;;;;;;5109378;27;19970;-64
2022/08/17 11:25:30;;;;;;;9.57;7.45;;;34.40;69.20;;;;;;5120399;28;20146;-64
2022/08/17 11:28:18;;;;;;;8.20;7.38;;;34.30;68.30;;;;;;5109118;28;20144;-64
2022/08/17 11:30:50;;;;;;;7.55;6.78;;;34.50;68.40;;;;;;5110926;28;20079;-64
2022/08/17 11:33:32;;;;;;;7.70;6.90;;;34.50;69.10;;;;;;5097658;28;21020;-64
2022/08/17 11:36:18;;;;;;;7.45;6.75;;;34.50;68.40;;;;;;5114428;28;20434;-63
2022/08/17 11:39:23;;;;;;;14.68;8.07;;;34.60;67.40;;;;;;5113159;28;20039;-64
2022/08/17 11:42:24;;;;;;;7.95;7.28;;;34.40;67.50;;;;;;5098338;27;20489;-63
2022/08/17 11:45:02;;;;;;;8.20;7.50;;;34.90;66.40;;;;;;5103681;27;20445;-66
2022/08/17 11:53:38;;;;;;;8.80;7.88;;;34.80;65.40;;;;;;5125262;27;20047;-64
2022/08/17 11:56:27;;;;;;;8.60;7.32;;;34.70;66.00;;;;;;5126167;27;20080;-65
2022/08/17 11:58:55;;;;;;;9.38;7.30;;;35.10;66.00;;;;;;5126904;27;20526;-64
2022/08/17 12:01:23;;;;;;;7.85;7.15;;;35.70;64.70;;;;;;5105580;28;20128;-65
2022/08/17 12:04:02;;;;;;;8.10;7.25;;;35.50;64.50;;;;;;5115625;27;20565;-64
2022/08/17 12:06:32;;;;;;;14.18;7.38;;;35.50;63.50;;;;;;5110251;27;20088;-64
2022/08/17 12:09:34;;;;;;;8.00;7.20;;;34.70;64.60;;;;;;5117205;27;20581;-65
2022/08/17 12:12:12;;;;;;;8.13;7.32;;;34.70;65.00;;;;;;5108552;27;20446;-65
2022/08/17 12:14:47;;;;;;;8.27;7.22;;;35.20;64.30;;;;;;5117920;27;20509;-65
2022/08/17 12:17:35;;;;;;;8.05;7.35;;;35.50;63.60;;;;;;5112306;27;20042;-65
2022/08/17 12:20:18;;;;;;;7.47;6.78;;;36.00;63.30;;;;;;5122209;27;20071;-65
2022/08/17 12:23:19;;;;;;;7.82;7.03;;;36.00;62.30;;;;;;5123895;27;20059;-63
2022/08/17 12:25:51;;;;;;;8.27;7.35;;;35.50;62.80;;;;;;5125565;27;20051;-63
2022/08/17 12:28:27;;;;;;;7.85;7.10;;;35.20;63.30;;;;;;5128217;27;20043;-64
2022/08/17 12:30:59;;;;;;;9.10;7.03;;;35.20;63.00;;;;;;5115166;27;20062;-63
2022/08/17 12:33:27;;;;;;;8.07;7.32;;;35.60;62.00;;;;;;5106069;27;20527;-64
2022/08/17 12:36:05;;;;;;;7.65;6.95;;;36.20;61.40;;;;;;5117774;27;20123;-64
2022/08/17 12:38:34;;;;;;;8.15;7.32;;;36.50;60.40;;;;;;5083824;27;20068;-64
2022/08/17 12:44:00;;;;;;;8.95;7.15;;;36.30;60.70;;;;;;5120088;27;20123;-64
2022/08/17 12:46:43;;;;;;;9.80;7.38;;;36.20;60.40;;;;;;5115965;27;20138;-64
2022/08/17 12:49:21;;;;;;;8.35;7.63;;;36.80;60.00;;;;;;5123968;27;20047;-64
2022/08/17 12:51:52;;;;;;;9.25;7.53;;;36.60;60.00;;;;;;5113579;27;20134;-64
2022/08/17 12:54:26;;;;;;;8.32;7.53;;;36.20;61.10;;;;;;5105638;27;20089;-64
2022/08/17 12:56:53;;;;;;;8.50;7.80;;;36.10;60.40;;;;;;5094885;27;20059;-64
2022/08/17 12:59:21;;;;;;;8.05;7.45;;;36.20;60.20;;;;;;5117616;27;20587;-64
2022/08/17 13:01:57;;;;;;;8.63;7.80;;;36.10;60.00;;;;;;5111828;27;20047;-64
2022/08/17 13:04:25;;;;;;;9.30;7.75;;;35.90;60.10;;;;;;5115123;27;20032;-64
2022/08/17 13:06:57;;;;;;;9.13;8.20;;;35.70;60.10;;;;;;5111536;27;20047;-64
2022/08/17 13:09:28;;;;;;;9.88;8.77;;;35.40;60.40;;;;;;5122743;27;20062;-64
2022/08/17 13:12:07;;;;;;;8.07;7.43;;;34.80;60.90;;;;;;5126723;27;20125;-64
2022/08/17 13:14:35;;;;;;;8.85;7.90;;;34.60;61.40;;;;;;5124894;27;20039;-64
2022/08/17 13:17:04;;;;;;;9.18;8.38;;;34.30;61.70;;;;;;5108233;27;20047;-65
2022/08/17 13:19:48;;;;;;;8.65;7.88;;;33.80;62.70;;;;;;5106761;27;20086;-64
2022/08/17 13:22:21;;;;;;;9.93;7.82;;;33.80;61.80;;;;;;5109793;28;20122;-64
2022/08/17 13:24:54;;;;;;;8.60;7.90;;;33.60;62.30;;;;;;5115494;27;20523;-64
2022/08/17 13:27:25;;;;;;;9.10;8.20;;;33.70;63.00;;;;;;5123617;27;20075;-64
2022/08/17 13:29:58;;;;;;;8.80;7.78;;;33.90;62.70;;;;;;5119260;27;20046;-64
2022/08/17 13:32:37;;;;;;;12.05;7.70;;;33.80;61.90;;;;;;5093100;28;20633;-64
2022/08/17 13:35:39;;;;;;;11.23;7.53;;;33.40;62.40;;;;;;5110828;27;20043;-64
2022/08/17 13:38:12;;;;;;;8.02;7.25;;;33.00;62.50;;;;;;5099979;27;20108;-64
2022/08/17 13:40:48;;;;;;;8.27;7.47;;;32.80;63.00;;;;;;5110639;27;20406;-65
2022/08/17 13:43:39;;;;;;;9.63;7.57;;;32.70;63.40;;;;;;5111559;27;20036;-64
2022/08/17 13:46:21;;;;;;;10.32;8.00;;;32.60;63.90;;;;;;5112400;27;20043;-64
2022/08/17 13:49:01;;;;;;;8.70;7.90;;;32.20;64.70;;;;;;5109713;27;20036;-64
2022/08/17 13:51:42;;;;;;;11.77;7.72;;;32.10;65.20;;;;;;5114019;27;20074;-64
2022/08/17 13:54:36;;;;;;;8.00;7.30;;;32.00;66.30;;;;;;5120352;27;20031;-64
2022/08/17 13:57:19;;;;;;;8.55;7.75;;;32.00;65.90;;;;;;5120613;27;20086;-64
2022/08/17 13:59:50;;;;;;;9.82;7.93;;;32.20;66.40;;;;;;5116309;27;20045;-64
2022/08/17 14:02:23;;;;;;;9.10;8.10;;;32.40;66.00;;;;;;5119862;27;20054;-64
2022/08/17 14:04:56;;;;;;;8.10;7.40;;;32.90;65.70;;;;;;5096517;27;20414;-64
2022/08/17 14:07:28;;;;;;;8.65;7.85;;;35.30;63.20;;;;;;5116944;27;20067;-65